Time;durP1;ratioP1;P1;durP2;ratioP2;P2;SDS_P1;SDS_P2;PMS_P1;PMS_P2;Temp;Humidity;BMP_temperature;BMP_pressure;BME280_temperature;BME280_humidity;BME280_pressure;Samples;Min_cycle;Max_cycle;Signal;HPM_P1;HPM_P2
2022/07/29 00:02:22;;;;;;;;;;;;;;;;;;5001543;28;19936;-51
2022/07/29 00:04:49;;;;;;;;;;;;;;;;;;5002314;28;20361;-49
2022/07/29 00:07:16;;;;;;;;;;;;;;;;;;4995544;28;19914;-48
2022/07/29 00:09:42;;;;;;;;;;;;;;;;;;5007184;28;19913;-49
2022/07/29 00:12:09;;;;;;;;;;;;;;;;;;5008106;28;19924;-49
2022/07/29 00:14:35;;;;;;;;;;;;;;;;;;5004539;28;19937;-52
2022/07/29 00:17:00;;;;;;;;;;;;;;;;;;4987698;28;19920;-49
2022/07/29 00:19:26;;;;;;;;;;;;;;;;;;4988051;28;19929;-50
2022/07/29 00:21:52;;;;;;;;;;;;;;;;;;4987313;28;20123;-49
2022/07/29 00:24:18;;;;;;;;;;;;;;;;;;4995137;28;20394;-47
2022/07/29 00:26:44;;;;;;;;;;;;;;;;;;4987140;28;20371;-49
2022/07/29 00:29:11;;;;;;;;;;;;;;;;;;4987517;28;20615;-49
2022/07/29 00:31:37;;;;;;;;;;;;;;;;;;4987689;28;19925;-49
2022/07/29 00:34:03;;;;;;;;;;;;;;;;;;4997248;28;20383;-49
2022/07/29 00:36:29;;;;;;;;;;;;;;;;;;4989582;28;19922;-49
2022/07/29 00:38:56;;;;;;;;;;;;;;;;;;4987169;28;20430;-49
2022/07/29 00:41:22;;;;;;;;;;;;;;;;;;4987315;28;20311;-48
2022/07/29 00:43:49;;;;;;;;;;;;;;;;;;4986909;28;20081;-50
2022/07/29 00:46:14;;;;;;;;;;;;;;;;;;4987148;28;19960;-50
2022/07/29 00:48:40;;;;;;;;;;;;;;;;;;4987129;28;20367;-54
2022/07/29 00:51:07;;;;;;;;;;;;;;;;;;4987635;28;19914;-52
2022/07/29 00:53:34;;;;;;;;;;;;;;;;;;4986694;28;20123;-51
2022/07/29 00:56:00;;;;;;;;;;;;;;;;;;4998620;28;20330;-52
2022/07/29 00:58:26;;;;;;;;;;;;;;;;;;5006536;28;19925;-50
2022/07/29 01:00:52;;;;;;;;;;;;;;;;;;5006127;28;20374;-52
2022/07/29 01:03:18;;;;;;;;;;;;;;;;;;5006495;28;19918;-52
2022/07/29 01:05:44;;;;;;;;;;;;;;;;;;4995952;28;19917;-50
2022/07/29 01:08:09;;;;;;;;;;;;;;;;;;4999601;28;19917;-51
2022/07/29 01:10:35;;;;;;;;;;;;;;;;;;4997033;28;19913;-52
2022/07/29 01:13:02;;;;;;;;;;;;;;;;;;4986769;28;19918;-50
2022/07/29 01:15:28;;;;;;;;;;;;;;;;;;4987197;28;19914;-53
2022/07/29 01:17:54;;;;;;;;;;;;;;;;;;4986399;28;19917;-51
2022/07/29 01:20:21;;;;;;;;;;;;;;;;;;4985383;28;20378;-48
2022/07/29 01:22:47;;;;;;;;;;;;;;;;;;4986336;28;19918;-52
2022/07/29 01:25:14;;;;;;;;;;;;;;;;;;4985744;28;20337;-49
2022/07/29 01:27:39;;;;;;;;;;;;;;;;;;4986142;28;19921;-48
2022/07/29 01:30:05;;;;;;;;;;;;;;;;;;4986872;28;20311;-50
2022/07/29 01:32:31;;;;;;;;;;;;;;;;;;4985933;28;20191;-51
2022/07/29 01:34:57;;;;;;;;;;;;;;;;;;4985898;28;19946;-52
2022/07/29 01:37:24;;;;;;;;;;;;;;;;;;4986541;28;19910;-53
2022/07/29 01:39:50;;;;;;;;;;;;;;;;;;4993490;28;20530;-51
2022/07/29 01:42:16;;;;;;;;;;;;;;;;;;5005807;28;19916;-52
2022/07/29 01:44:42;;;;;;;;;;;;;;;;;;5000103;28;19969;-50
2022/07/29 01:47:08;;;;;;;;;;;;;;;;;;4986126;28;20318;-53
2022/07/29 01:49:35;;;;;;;;;;;;;;;;;;4986035;28;19920;-49
2022/07/29 01:52:00;;;;;;;;;;;;;;;;;;4986074;28;20008;-51
2022/07/29 01:54:26;;;;;;;;;;;;;;;;;;4985972;28;20040;-53
2022/07/29 01:56:53;;;;;;;;;;;;;;;;;;5003968;28;20302;-52
2022/07/29 01:59:20;;;;;;;;;;;;;;;;;;5006193;28;19910;-49
2022/07/29 02:01:46;;;;;;;;;;;;;;;;;;5005107;28;19916;-49
2022/07/29 02:04:12;;;;;;;;;;;;;;;;;;5005559;28;19914;-49
2022/07/29 02:06:39;;;;;;;;;;;;;;;;;;4988657;28;19957;-48
2022/07/29 02:09:06;;;;;;;;;;;;;;;;;;4986355;28;19909;-53
2022/07/29 02:11:31;;;;;;;;;;;;;;;;;;4985512;28;20363;-51
2022/07/29 02:13:58;;;;;;;;;;;;;;;;;;4992677;28;19929;-50
2022/07/29 02:16:24;;;;;;;;;;;;;;;;;;4989805;28;19968;-50
2022/07/29 02:18:50;;;;;;;;;;;;;;;;;;4985608;28;19918;-49
2022/07/29 02:21:17;;;;;;;;;;;;;;;;;;4985714;28;19914;-52
2022/07/29 02:23:44;;;;;;;;;;;;;;;;;;4985130;28;19909;-50
2022/07/29 02:26:10;;;;;;;;;;;;;;;;;;4984952;28;19957;-52
2022/07/29 02:28:36;;;;;;;;;;;;;;;;;;4985984;28;19953;-49
2022/07/29 02:31:02;;;;;;;;;;;;;;;;;;4985402;28;19913;-49
2022/07/29 02:33:29;;;;;;;;;;;;;;;;;;4985851;28;19914;-49
2022/07/29 02:35:56;;;;;;;;;;;;;;;;;;4991647;28;19920;-48
2022/07/29 02:41:06;;;;;;;;;;;;;;;;;;5005655;28;20409;-49
2022/07/29 02:43:32;;;;;;;;;;;;;;;;;;5002248;28;19917;-50
2022/07/29 02:45:58;;;;;;;;;;;;;;;;;;4993148;28;20406;-49
2022/07/29 02:48:24;;;;;;;;;;;;;;;;;;4985626;28;20339;-49
2022/07/29 02:50:51;;;;;;;;;;;;;;;;;;4985122;28;19964;-49
2022/07/29 02:53:17;;;;;;;;;;;;;;;;;;4985583;28;19924;-48
2022/07/29 02:55:47;;;;;;;;;;;;;;;;;;4984770;28;20008;-51
2022/07/29 02:58:14;;;;;;;;;;;;;;;;;;4986337;28;20310;-50
2022/07/29 03:00:40;;;;;;;;;;;;;;;;;;4988993;28;19910;-49
2022/07/29 03:03:05;;;;;;;;;;;;;;;;;;4989763;28;20350;-49
2022/07/29 03:05:31;;;;;;;;;;;;;;;;;;4989242;28;19914;-53
2022/07/29 03:07:57;;;;;;;;;;;;;;;;;;4987715;28;20039;-51
2022/07/29 03:10:23;;;;;;;;;;;;;;;;;;4988863;28;19910;-51
2022/07/29 03:12:49;;;;;;;;;;;;;;;;;;4988693;28;19924;-49
2022/07/29 03:15:15;;;;;;;;;;;;;;;;;;4988644;28;19918;-48
2022/07/29 03:17:41;;;;;;;;;;;;;;;;;;5006336;28;19943;-49
2022/07/29 03:20:08;;;;;;;;;;;;;;;;;;5009014;28;20314;-49
2022/07/29 03:22:34;;;;;;;;;;;;;;;;;;5007674;28;20353;-52
2022/07/29 03:25:00;;;;;;;;;;;;;;;;;;4988860;28;19937;-49
2022/07/29 03:27:26;;;;;;;;;;;;;;;;;;5005110;28;19913;-49
2022/07/29 03:29:52;;;;;;;;;;;;;;;;;;5008050;28;19924;-49
2022/07/29 03:32:18;;;;;;;;;;;;;;;;;;5008401;28;19925;-51
2022/07/29 03:34:44;;;;;;;;;;;;;;;;;;5008046;28;19910;-48
2022/07/29 03:37:11;;;;;;;;;;;;;;;;;;4992735;28;20357;-50
2022/07/29 03:39:37;;;;;;;;;;;;;;;;;;4988811;28;19988;-52
2022/07/29 03:42:03;;;;;;;;;;;;;;;;;;4988502;28;19952;-50
2022/07/29 03:44:29;;;;;;;;;;;;;;;;;;4988117;28;19914;-50
2022/07/29 03:46:56;;;;;;;;;;;;;;;;;;4987836;28;19945;-49
2022/07/29 03:49:22;;;;;;;;;;;;;;;;;;4988349;28;19910;-51
2022/07/29 03:51:47;;;;;;;;;;;;;;;;;;4988194;28;19964;-49
2022/07/29 03:54:14;;;;;;;;;;;;;;;;;;4988399;28;20645;-52
2022/07/29 03:56:40;;;;;;;;;;;;;;;;;;4997322;28;20308;-48
2022/07/29 03:59:06;;;;;;;;;;;;;;;;;;4988975;28;19917;-51
2022/07/29 04:01:32;;;;;;;;;;;;;;;;;;4987754;28;20700;-52
2022/07/29 04:03:58;;;;;;;;;;;;;;;;;;4988008;28;19914;-50
2022/07/29 04:06:25;;;;;;;;;;;;;;;;;;4987479;28;19936;-50
2022/07/29 04:08:51;;;;;;;;;;;;;;;;;;4987207;28;19921;-50
2022/07/29 04:11:17;;;;;;;;;;;;;;;;;;4987919;28;19918;-48
2022/07/29 04:13:44;;;;;;;;;;;;;;;;;;4990486;28;20275;-48
2022/07/29 04:16:10;;;;;;;;;;;;;;;;;;4996702;28;19914;-51
2022/07/29 04:18:35;;;;;;;;;;;;;;;;;;4999893;28;19921;-49
2022/07/29 04:21:03;;;;;;;;;;;;;;;;;;5007346;28;20342;-49
2022/07/29 04:23:32;;;;;;;;;;;;;;;;;;5007087;28;19913;-50
2022/07/29 04:25:58;;;;;;;;;;;;;;;;;;5007216;28;19925;-52
2022/07/29 04:28:25;;;;;;;;;;;;;;;;;;5005564;28;19928;-49
2022/07/29 04:30:51;;;;;;;;;;;;;;;;;;5006913;28;19917;-51
2022/07/29 04:33:17;;;;;;;;;;;;;;;;;;5007026;28;19917;-52
2022/07/29 04:35:44;;;;;;;;;;;;;;;;;;5005181;28;19918;-50
2022/07/29 04:38:11;;;;;;;;;;;;;;;;;;5004162;28;19910;-52
2022/07/29 04:40:37;;;;;;;;;;;;;;;;;;4987809;28;20008;-52
2022/07/29 04:43:03;;;;;;;;;;;;;;;;;;4987254;28;19993;-49
2022/07/29 04:45:29;;;;;;;;;;;;;;;;;;4987032;28;20565;-49
2022/07/29 04:47:55;;;;;;;;;;;;;;;;;;4986760;28;19913;-50
2022/07/29 04:50:22;;;;;;;;;;;;;;;;;;4987193;28;19910;-48
2022/07/29 04:52:48;;;;;;;;;;;;;;;;;;4986944;28;19921;-47
2022/07/29 04:55:15;;;;;;;;;;;;;;;;;;4987115;28;19946;-49
2022/07/29 04:57:42;;;;;;;;;;;;;;;;;;4986577;28;19969;-43
2022/07/29 05:00:08;;;;;;;;;;;;;;;;;;4989340;28;19917;-48
2022/07/29 05:02:34;;;;;;;;;;;;;;;;;;4987421;28;20303;-48
2022/07/29 05:05:00;;;;;;;;;;;;;;;;;;4996984;28;19917;-47
2022/07/29 05:07:26;;;;;;;;;;;;;;;;;;5007616;28;19915;-46
2022/07/29 05:09:52;;;;;;;;;;;;;;;;;;4993870;28;19913;-47
2022/07/29 05:12:18;;;;;;;;;;;;;;;;;;4987827;28;20009;-47
2022/07/29 05:14:44;;;;;;;;;;;;;;;;;;4987414;28;20426;-52
2022/07/29 05:17:10;;;;;;;;;;;;;;;;;;4987913;28;19910;-47
2022/07/29 05:19:36;;;;;;;;;;;;;;;;;;4989814;28;19914;-47
2022/07/29 05:22:02;;;;;;;;;;;;;;;;;;4987036;28;20418;-48
2022/07/29 05:24:28;;;;;;;;;;;;;;;;;;4994931;28;19967;-46
2022/07/29 05:26:54;;;;;;;;;;;;;;;;;;5007831;28;19917;-48
2022/07/29 05:29:20;;;;;;;;;;;;;;;;;;4988345;28;19925;-47
2022/07/29 05:31:46;;;;;;;;;;;;;;;;;;5006070;28;19914;-49
2022/07/29 05:34:12;;;;;;;;;;;;;;;;;;5007630;28;19932;-48
2022/07/29 05:36:38;;;;;;;;;;;;;;;;;;5007325;28;19967;-47
2022/07/29 05:39:04;;;;;;;;;;;;;;;;;;5007031;28;19996;-47
2022/07/29 05:41:30;;;;;;;;;;;;;;;;;;5000774;28;20047;-47
2022/07/29 05:43:56;;;;;;;;;;;;;;;;;;4991196;28;20586;-47
2022/07/29 05:46:22;;;;;;;;;;;;;;;;;;4988554;28;19921;-50
2022/07/29 05:48:48;;;;;;;;;;;;;;;;;;5007831;28;19913;-47
2022/07/29 05:51:14;;;;;;;;;;;;;;;;;;5006141;28;19921;-48
2022/07/29 05:53:40;;;;;;;;;;;;;;;;;;4993737;28;20004;-48
2022/07/29 05:56:07;;;;;;;;;;;;;;;;;;5006261;28;20008;-47
2022/07/29 05:58:33;;;;;;;;;;;;;;;;;;5006707;28;19920;-48
2022/07/29 06:01:00;;;;;;;;;;;;;;;;;;5007159;28;19914;-48
2022/07/29 06:03:26;;;;;;;;;;;;;;;;;;4999343;28;19914;-48
2022/07/29 06:05:52;;;;;;;;;;;;;;;;;;4987763;28;19910;-50
2022/07/29 06:08:18;;;;;;;;;;;;;;;;;;5004886;28;19913;-49
2022/07/29 06:10:45;;;;;;;;;;;;;;;;;;5005475;28;19920;-51
2022/07/29 06:13:11;;;;;;;;;;;;;;;;;;5002441;28;20295;-49
2022/07/29 06:15:37;;;;;;;;;;;;;;;;;;4986838;28;20112;-48
2022/07/29 06:18:03;;;;;;;;;;;;;;;;;;4987337;28;19972;-48
2022/07/29 06:20:31;;;;;;;;;;;;;;;;;;4997019;28;19937;-48
2022/07/29 06:22:57;;;;;;;;;;;;;;;;;;5003797;28;19922;-51
2022/07/29 06:25:23;;;;;;;;;;;;;;;;;;5000666;28;19920;-49
2022/07/29 06:27:49;;;;;;;;;;;;;;;;;;5006023;28;19948;-51
2022/07/29 06:30:15;;;;;;;;;;;;;;;;;;5003825;28;19914;-48
2022/07/29 06:32:41;;;;;;;;;;;;;;;;;;4989906;28;20434;-49
2022/07/29 06:35:07;;;;;;;;;;;;;;;;;;5028724;28;19956;-49
2022/07/29 06:37:33;;;;;;;;;;;;;;;;;;5026291;28;19960;-51
2022/07/29 06:42:43;;;;;;;;;;;;;;;;;;4998183;28;19928;-49
2022/07/29 06:45:09;;;;;;;;;;;;;;;;;;4993588;28;20314;-52
2022/07/29 06:47:35;;;;;;;;;;;;;;;;;;5006216;28;20279;-50
2022/07/29 06:50:01;;;;;;;;;;;;;;;;;;5011241;28;19914;-51
2022/07/29 06:52:27;;;;;;;;;;;;;;;;;;4997969;28;20020;-51
2022/07/29 06:54:54;;;;;;;;;;;;;;;;;;4992074;28;19914;-51
2022/07/29 06:57:20;;;;;;;;;;;;;;;;;;4992723;28;19972;-52
2022/07/29 06:59:47;;;;;;;;;;;;;;;;;;4999684;28;19936;-52
2022/07/29 07:02:13;;;;;;;;;;;;;;;;;;4999208;28;19963;-52
2022/07/29 07:04:38;;;;;;;;;;;;;;;;;;5004063;28;20327;-49
2022/07/29 07:07:04;;;;;;;;;;;;;;;;;;4993955;28;19922;-49
2022/07/29 07:09:30;;;;;;;;;;;;;;;;;;4990974;28;19924;-52
2022/07/29 07:11:56;;;;;;;;;;;;;;;;;;5003111;28;20024;-51
2022/07/29 07:14:22;;;;;;;;;;;;;;;;;;5003544;28;20461;-52
2022/07/29 07:16:48;;;;;;;;;;;;;;;;;;4999940;28;19909;-54
2022/07/29 07:19:14;;;;;;;;;;;;;;;;;;5024278;28;19933;-54
2022/07/29 07:21:40;;;;;;;;;;;;;;;;;;5010187;28;19953;-53
2022/07/29 07:24:06;;;;;;;;;;;;;;;;;;5002204;28;19968;-53
2022/07/29 07:26:32;;;;;;;;;;;;;;;;;;5008956;28;19910;-53
2022/07/29 07:29:00;;;;;;;;;;;;;;;;;;4991418;28;19917;-53
2022/07/29 07:31:26;;;;;;;;;;;;;;;;;;4992114;28;19949;-52
2022/07/29 07:33:53;;;;;;;;;;;;;;;;;;5003269;28;19963;-54
2022/07/29 07:36:19;;;;;;;;;;;;;;;;;;5008711;28;19913;-53
2022/07/29 07:38:45;;;;;;;;;;;;;;;;;;4996943;28;19918;-53
2022/07/29 07:41:11;;;;;;;;;;;;;;;;;;5000434;28;20444;-54
2022/07/29 07:43:37;;;;;;;;;;;;;;;;;;5009410;28;19921;-53
2022/07/29 07:46:02;;;;;;;;;;;;;;;;;;4995560;28;19952;-49
2022/07/29 07:48:28;;;;;;;;;;;;;;;;;;5007546;28;19913;-49
2022/07/29 07:50:54;;;;;;;;;;;;;;;;;;4989968;28;19922;-50
2022/07/29 07:53:20;;;;;;;;;;;;;;;;;;4998746;28;19948;-50
2022/07/29 07:55:46;;;;;;;;;;;;;;;;;;4996643;28;19914;-49
2022/07/29 07:58:12;;;;;;;;;;;;;;;;;;5000288;28;19964;-49
2022/07/29 08:00:38;;;;;;;;;;;;;;;;;;4990380;28;19914;-51
2022/07/29 08:03:04;;;;;;;;;;;;;;;;;;4994385;28;19917;-46
2022/07/29 08:05:30;;;;;;;;;;;;;;;;;;5005137;28;19925;-48
2022/07/29 08:07:56;;;;;;;;;;;;;;;;;;5008736;28;19909;-48
2022/07/29 08:13:06;;;;;;;;;;;;;;;;;;5008881;28;19940;-48
2022/07/29 08:15:32;;;;;;;;;;;;;;;;;;5008781;28;19914;-47
2022/07/29 08:17:58;;;;;;;;;;;;;;;;;;5008584;28;19917;-48
2022/07/29 08:20:25;;;;;;;;;;;;;;;;;;4996684;28;20343;-46
2022/07/29 08:22:52;;;;;;;;;;;;;;;;;;4996862;28;20012;-48
2022/07/29 08:25:20;;;;;;;;;;;;;;;;;;4988957;28;19914;-47
2022/07/29 08:27:46;;;;;;;;;;;;;;;;;;4991739;28;19917;-47
2022/07/29 08:30:12;;;;;;;;;;;;;;;;;;5006751;28;19910;-50
2022/07/29 08:32:37;;;;;;;;;;;;;;;;;;5007812;28;20020;-47
2022/07/29 08:35:03;;;;;;;;;;;;;;;;;;5008233;28;20321;-47
2022/07/29 08:37:29;;;;;;;;;;;;;;;;;;4990810;28;19920;-51
2022/07/29 08:39:55;;;;;;;;;;;;;;;;;;4998621;28;19920;-48
2022/07/29 08:42:21;;;;;;;;;;;;;;;;;;4993734;28;20015;-48
2022/07/29 08:44:47;;;;;;;;;;;;;;;;;;5009109;28;19913;-49
2022/07/29 08:47:13;;;;;;;;;;;;;;;;;;4990289;28;19922;-54
2022/07/29 08:49:39;;;;;;;;;;;;;;;;;;4989605;28;19910;-53
2022/07/29 08:52:05;;;;;;;;;;;;;;;;;;4988590;28;19910;-51
2022/07/29 08:54:31;;;;;;;;;;;;;;;;;;4994520;28;19914;-51
2022/07/29 08:56:57;;;;;;;;;;;;;;;;;;5007182;28;19917;-50
2022/07/29 08:59:23;;;;;;;;;;;;;;;;;;5008798;28;20727;-53
2022/07/29 09:01:49;;;;;;;;;;;;;;;;;;5008803;28;19932;-50
2022/07/29 09:04:15;;;;;;;;;;;;;;;;;;5002022;28;19925;-54
2022/07/29 09:06:41;;;;;;;;;;;;;;;;;;4991057;28;19971;-56
2022/07/29 09:09:07;;;;;;;;;;;;;;;;;;5007684;28;19975;-57
2022/07/29 09:11:33;;;;;;;;;;;;;;;;;;5008910;28;19913;-57
2022/07/29 09:13:59;;;;;;;;;;;;;;;;;;5009148;28;20004;-57
2022/07/29 09:16:25;;;;;;;;;;;;;;;;;;4992365;28;20009;-57
2022/07/29 09:18:51;;;;;;;;;;;;;;;;;;4987356;28;19976;-57
2022/07/29 09:24:01;;;;;;;;;;;;;;;;;;4995037;28;19925;-53
2022/07/29 09:26:27;;;;;;;;;;;;;;;;;;5005964;28;19918;-53
2022/07/29 09:28:53;;;;;;;;;;;;;;;;;;5007935;28;19925;-54
2022/07/29 09:31:21;;;;;;;;;;;;;;;;;;5002089;28;19914;-54
2022/07/29 09:33:47;;;;;;;;;;;;;;;;;;4988620;28;19922;-54
2022/07/29 09:36:13;;;;;;;;;;;;;;;;;;4989225;28;20291;-53
2022/07/29 09:38:39;;;;;;;;;;;;;;;;;;4988386;28;20004;-53
2022/07/29 09:41:06;;;;;;;;;;;;;;;;;;4988516;28;19952;-53
2022/07/29 09:43:31;;;;;;;;;;;;;;;;;;4988030;28;19917;-54
2022/07/29 09:45:57;;;;;;;;;;;;;;;;;;4988544;28;19943;-53
2022/07/29 09:48:23;;;;;;;;;;;;;;;;;;4989086;28;19910;-52
2022/07/29 09:50:49;;;;;;;;;;;;;;;;;;4988341;28;19921;-52
2022/07/29 09:53:15;;;;;;;;;;;;;;;;;;5003735;28;19928;-53
2022/07/29 09:55:41;;;;;;;;;;;;;;;;;;5003786;28;20798;-51
2022/07/29 09:58:07;;;;;;;;;;;;;;;;;;4994246;28;19922;-51
2022/07/29 10:00:33;;;;;;;;;;;;;;;;;;4992543;28;19913;-50
2022/07/29 10:03:00;;;;;;;;;;;;;;;;;;4996650;28;19959;-50
2022/07/29 10:05:28;;;;;;;;;;;;;;;;;;4988858;28;19918;-53
2022/07/29 10:07:54;;;;;;;;;;;;;;;;;;4987533;28;19914;-50
2022/07/29 10:10:20;;;;;;;;;;;;;;;;;;4987964;28;19913;-51
2022/07/29 10:12:45;;;;;;;;;;;;;;;;;;5000510;28;19921;-52
2022/07/29 10:15:11;;;;;;;;;;;;;;;;;;5008275;28;19921;-51
2022/07/29 10:17:37;;;;;;;;;;;;;;;;;;4996422;28;19926;-51
2022/07/29 10:20:04;;;;;;;;;;;;;;;;;;5007075;28;19913;-51
2022/07/29 10:22:30;;;;;;;;;;;;;;;;;;5006267;28;19913;-52
2022/07/29 10:24:56;;;;;;;;;;;;;;;;;;5005707;28;19941;-49
2022/07/29 10:27:22;;;;;;;;;;;;;;;;;;4988315;28;19913;-50
2022/07/29 10:29:48;;;;;;;;;;;;;;;;;;5001135;28;19939;-49
2022/07/29 10:32:14;;;;;;;;;;;;;;;;;;5008038;28;19913;-50
2022/07/29 10:34:40;;;;;;;;;;;;;;;;;;5007235;28;19960;-49
2022/07/29 10:37:06;;;;;;;;;;;;;;;;;;5006268;28;19964;-50
2022/07/29 10:39:32;;;;;;;;;;;;;;;;;;5004374;28;19921;-52
2022/07/29 10:41:58;;;;;;;;;;;;;;;;;;4990890;28;19937;-49
2022/07/29 10:44:24;;;;;;;;;;;;;;;;;;4987581;28;19941;-50
2022/07/29 10:46:51;;;;;;;;;;;;;;;;;;4996897;28;19913;-53
2022/07/29 10:49:17;;;;;;;;;;;;;;;;;;5006037;28;19975;-51
2022/07/29 10:51:43;;;;;;;;;;;;;;;;;;5007447;28;19910;-52
2022/07/29 10:54:09;;;;;;;;;;;;;;;;;;5004570;28;19926;-53
2022/07/29 10:56:36;;;;;;;;;;;;;;;;;;4990669;28;19922;-51
2022/07/29 10:59:01;;;;;;;;;;;;;;;;;;4987363;28;20310;-51
2022/07/29 11:01:27;;;;;;;;;;;;;;;;;;4986050;28;19924;-53
2022/07/29 11:03:55;;;;;;;;;;;;;;;;;;4987712;28;20006;-53
2022/07/29 11:06:21;;;;;;;;;;;;;;;;;;4987795;28;19913;-52
2022/07/29 11:08:47;;;;;;;;;;;;;;;;;;4987341;28;19968;-50
2022/07/29 11:11:13;;;;;;;;;;;;;;;;;;4988094;28;19914;-53
2022/07/29 11:13:39;;;;;;;;;;;;;;;;;;4987327;28;19996;-54
2022/07/29 11:16:06;;;;;;;;;;;;;;;;;;4992568;28;19921;-54
2022/07/29 11:18:32;;;;;;;;;;;;;;;;;;5005801;28;19917;-54
2022/07/29 11:20:59;;;;;;;;;;;;;;;;;;5007326;28;19914;-54
2022/07/29 11:23:26;;;;;;;;;;;;;;;;;;5007119;28;19917;-54
2022/07/29 11:25:52;;;;;;;;;;;;;;;;;;4992160;28;19914;-53
2022/07/29 11:28:18;;;;;;;;;;;;;;;;;;5000183;28;19924;-53
2022/07/29 11:30:44;;;;;;;;;;;;;;;;;;5011038;28;19913;-55
2022/07/29 11:33:10;;;;;;;;;;;;;;;;;;5002534;28;19997;-55
2022/07/29 11:35:36;;;;;;;;;;;;;;;;;;4994002;28;19917;-55
2022/07/29 11:38:02;;;;;;;;;;;;;;;;;;4992549;28;19918;-55
2022/07/29 11:40:28;;;;;;;;;;;;;;;;;;5002573;28;20015;-55
2022/07/29 11:42:54;;;;;;;;;;;;;;;;;;5006963;28;19976;-55
2022/07/29 11:45:20;;;;;;;;;;;;;;;;;;4998042;28;20306;-56
2022/07/29 11:47:46;;;;;;;;;;;;;;;;;;4996648;28;20287;-56
2022/07/29 11:50:12;;;;;;;;;;;;;;;;;;5007559;28;19925;-55
2022/07/29 11:52:42;;;;;;;;;;;;;;;;;;4992481;28;19925;-56
2022/07/29 11:55:08;;;;;;;;;;;;;;;;;;4999151;28;20008;-56
2022/07/29 11:57:35;;;;;;;;;;;;;;;;;;4991071;28;20035;-56
2022/07/29 12:00:02;;;;;;;;;;;;;;;;;;4995505;28;19914;-56
2022/07/29 12:02:27;;;;;;;;;;;;;;;;;;5000213;28;20015;-57
2022/07/29 12:04:53;;;;;;;;;;;;;;;;;;5001864;28;19945;-57
2022/07/29 12:07:20;;;;;;;;;;;;;;;;;;5000546;28;19917;-57
2022/07/29 12:09:46;;;;;;;;;;;;;;;;;;4989372;28;19972;-57
2022/07/29 12:12:12;;;;;;;;;;;;;;;;;;4998512;28;19960;-57
2022/07/29 12:14:44;;;;;;;;;;;;;;;;;;5004333;28;19952;-57
2022/07/29 12:17:10;;;;;;;;;;;;;;;;;;5007068;28;19910;-57
2022/07/29 12:19:36;;;;;;;;;;;;;;;;;;5006834;28;20069;-57
2022/07/29 12:22:02;;;;;;;;;;;;;;;;;;4989986;28;19914;-57
2022/07/29 12:24:28;;;;;;;;;;;;;;;;;;5004496;28;20013;-57
2022/07/29 12:26:54;;;;;;;;;;;;;;;;;;5006582;28;19941;-58
2022/07/29 12:29:20;;;;;;;;;;;;;;;;;;5000948;28;20000;-57
2022/07/29 12:31:46;;;;;;;;;;;;;;;;;;4989141;28;19916;-57
2022/07/29 12:34:12;;;;;;;;;;;;;;;;;;4993064;28;19922;-57
2022/07/29 12:36:38;;;;;;;;;;;;;;;;;;4988823;28;20387;-58
2022/07/29 12:39:05;;;;;;;;;;;;;;;;;;4993304;28;20007;-58
2022/07/29 12:41:31;;;;;;;;;;;;;;;;;;5001698;28;20433;-58
2022/07/29 12:43:57;;;;;;;;;;;;;;;;;;4999517;28;19922;-58
2022/07/29 12:46:23;;;;;;;;;;;;;;;;;;4994447;28;20452;-58
2022/07/29 12:48:49;;;;;;;;;;;;;;;;;;5001350;28;19913;-58
2022/07/29 12:51:16;;;;;;;;;;;;;;;;;;5008498;28;19913;-58
2022/07/29 12:53:42;;;;;;;;;;;;;;;;;;4993165;28;19921;-58
2022/07/29 12:56:08;;;;;;;;;;;;;;;;;;5002316;28;19924;-58
2022/07/29 12:58:34;;;;;;;;;;;;;;;;;;4999713;28;20375;-58
2022/07/29 13:01:00;;;;;;;;;;;;;;;;;;5011530;28;19920;-58
2022/07/29 13:03:26;;;;;;;;;;;;;;;;;;5021960;28;19924;-58
2022/07/29 13:05:52;;;;;;;;;;;;;;;;;;5000465;28;20055;-58
2022/07/29 13:08:21;;;;;;;;;;;;;;;;;;4995469;28;19922;-59
2022/07/29 13:10:47;;;;;;;;;;;;;;;;;;5001544;28;20305;-59
2022/07/29 13:13:12;;;;;;;;;;;;;;;;;;5004523;28;19921;-58
2022/07/29 13:15:38;;;;;;;;;;;;;;;;;;5007393;28;19914;-41
2022/07/29 13:18:04;;;;;;;;;;;;;;;;;;5007787;28;19945;-41
2022/07/29 13:20:31;;;;;;;;;;;;;;;;;;4986929;28;19921;-42
2022/07/29 13:22:57;;;;;;;;;;;;;;;;;;4996653;28;19926;-42
2022/07/29 13:25:24;;;;;;;;;;;;;;;;;;5004959;28;19917;-43
2022/07/29 13:27:50;;;;;;;;;;;;;;;;;;5007211;28;19918;-42
2022/07/29 13:30:16;;;;;;;;;;;;;;;;;;5003435;28;20275;-42
2022/07/29 13:32:42;;;;;;;;;;;;;;;;;;4996879;28;19929;-42
2022/07/29 13:35:09;;;;;;;;;;;;;;;;;;4988675;28;20430;-42
2022/07/29 13:37:37;;;;;;;;;;;;;;;;;;4987559;28;19921;-42
2022/07/29 13:40:03;;;;;;;;;;;;;;;;;;4987534;28;20318;-42
2022/07/29 13:42:29;;;;;;;;;;;;;;;;;;4990895;28;19914;-42
2022/07/29 13:44:56;;;;;;;;;;;;;;;;;;5002695;28;19964;-42
2022/07/29 13:47:22;;;;;;;;;;;;;;;;;;5006699;28;20329;-42
2022/07/29 13:49:48;;;;;;;;;;;;;;;;;;4996099;28;19917;-59
2022/07/29 13:52:15;;;;;;;;;;;;;;;;;;4990980;28;20458;-57
2022/07/29 13:54:41;;;;;;;;;;;;;;;;;;4993764;28;19917;-57
2022/07/29 13:57:07;;;;;;;;;;;;;;;;;;4990480;28;19940;-41
2022/07/29 13:59:33;;;;;;;;;;;;;;;;;;4990637;28;19917;-42
2022/07/29 14:02:00;;;;;;;;;;;;;;;;;;4995773;28;19960;-42
2022/07/29 14:04:26;;;;;;;;;;;;;;;;;;5000761;28;19917;-42
2022/07/29 14:06:52;;;;;;;;;;;;;;;;;;5000192;28;19914;-42
2022/07/29 14:09:17;;;;;;;;;;;;;;;;;;5005579;28;19941;-42
2022/07/29 14:11:43;;;;;;;;;;;;;;;;;;5000994;28;19918;-42
2022/07/29 14:14:10;;;;;;;;;;;;;;;;;;4986166;28;19953;-42
2022/07/29 14:16:36;;;;;;;;;;;;;;;;;;4996688;28;19917;-41
2022/07/29 14:19:02;;;;;;;;;;;;;;;;;;5000293;28;19920;-41
2022/07/29 14:21:28;;;;;;;;;;;;;;;;;;4992497;28;19921;-41
2022/07/29 14:23:54;;;;;;;;;;;;;;;;;;5004128;28;19985;-41
2022/07/29 14:26:20;;;;;;;;;;;;;;;;;;4999016;28;20012;-41
2022/07/29 14:28:46;;;;;;;;;;;;;;;;;;4997272;28;20108;-41
2022/07/29 14:31:13;;;;;;;;;;;;;;;;;;4990994;28;20268;-42
2022/07/29 14:33:38;;;;;;;;;;;;;;;;;;4999172;28;19917;-42
2022/07/29 14:36:04;;;;;;;;;;;;;;;;;;4988473;28;20310;-42
2022/07/29 14:38:30;;;;;;;;;;;;;;;;;;4989204;28;19914;-43
2022/07/29 14:40:57;;;;;;;;;;;;;;;;;;4998456;28;20358;-42
2022/07/29 14:43:24;;;;;;;;;;;;;;;;;;4991754;28;19928;-42
2022/07/29 14:45:50;;;;;;;;;;;;;;;;;;4987731;28;19921;-42
2022/07/29 14:48:16;;;;;;;;;;;;;;;;;;4989881;28;19918;-41
2022/07/29 14:50:42;;;;;;;;;;;;;;;;;;5000292;28;19921;-41
2022/07/29 14:53:08;;;;;;;;;;;;;;;;;;4991460;28;19932;-41
2022/07/29 14:55:33;;;;;;;;;;;;;;;;;;5000148;28;20369;-41
2022/07/29 14:58:00;;;;;;;;;;;;;;;;;;4995416;28;20390;-42
2022/07/29 15:00:26;;;;;;;;;;;;;;;;;;4992521;28;19921;-41
2022/07/29 15:02:52;;;;;;;;;;;;;;;;;;5003302;28;19918;-41
2022/07/29 15:05:18;;;;;;;;;;;;;;;;;;4996240;28;19917;-58
2022/07/29 15:07:44;;;;;;;;;;;;;;;;;;5001257;28;19948;-58
2022/07/29 15:10:10;;;;;;;;;;;;;;;;;;4995618;28;20001;-58
2022/07/29 15:12:36;;;;;;;;;;;;;;;;;;5010000;28;19953;-58
2022/07/29 15:15:02;;;;;;;;;;;;;;;;;;5001220;28;19921;-59
2022/07/29 15:17:29;;;;;;;;;;;;;;;;;;4994050;28;19917;-59
2022/07/29 15:19:56;;;;;;;;;;;;;;;;;;4998859;28;19940;-59
2022/07/29 15:22:22;;;;;;;;;;;;;;;;;;4995119;28;19960;-59
2022/07/29 15:24:47;;;;;;;;;;;;;;;;;;5005210;28;20317;-59
2022/07/29 15:27:13;;;;;;;;;;;;;;;;;;5002329;28;20512;-59
2022/07/29 15:29:39;;;;;;;;;;;;;;;;;;4991865;28;20020;-57
2022/07/29 15:32:05;;;;;;;;;;;;;;;;;;4993370;28;19925;-57
2022/07/29 15:34:31;;;;;;;;;;;;;;;;;;4997220;28;19918;-57
2022/07/29 15:36:57;;;;;;;;;;;;;;;;;;5004670;28;19922;-56
2022/07/29 15:39:23;;;;;;;;;;;;;;;;;;4991239;28;19917;-58
2022/07/29 15:41:49;;;;;;;;;;;;;;;;;;5001404;28;19988;-56
2022/07/29 15:52:30;;;;;;;;;;;;;;;;;;5008211;28;20541;-57
2022/07/29 15:54:56;;;;;;;;;;;;;;;;;;4994907;28;19921;-56
2022/07/29 15:57:23;;;;;;;;;;;;;;;;;;4995655;28;19914;-57
2022/07/29 15:59:49;;;;;;;;;;;;;;;;;;5004646;28;20036;-57
2022/07/29 16:02:15;;;;;;;;;;;;;;;;;;5004775;28;19995;-57
2022/07/29 16:04:42;;;;;;;;;;;;;;;;;;5001925;28;19968;-56
2022/07/29 16:07:07;;;;;;;;;;;;;;;;;;5009202;28;19914;-56
2022/07/29 16:09:33;;;;;;;;;;;;;;;;;;5006943;28;20333;-57
2022/07/29 16:11:59;;;;;;;;;;;;;;;;;;4992193;28;19917;-57
2022/07/29 16:14:25;;;;;;;;;;;;;;;;;;4989890;28;20071;-56
2022/07/29 16:16:51;;;;;;;;;;;;;;;;;;4989929;28;19921;-56
2022/07/29 16:19:17;;;;;;;;;;;;;;;;;;5004120;28;19917;-57
2022/07/29 16:21:44;;;;;;;;;;;;;;;;;;4989248;28;19922;-57
2022/07/29 16:24:11;;;;;;;;;;;;;;;;;;4996432;28;20011;-56
2022/07/29 16:26:37;;;;;;;;;;;;;;;;;;5004929;28;19988;-57
2022/07/29 16:29:03;;;;;;;;;;;;;;;;;;4999976;28;19961;-57
2022/07/29 16:31:29;;;;;;;;;;;;;;;;;;4991423;28;19940;-56
2022/07/29 16:33:55;;;;;;;;;;;;;;;;;;4989603;28;20379;-56
2022/07/29 16:36:20;;;;;;;;;;;;;;;;;;4989816;28;19909;-57
2022/07/29 16:38:47;;;;;;;;;;;;;;;;;;4992800;28;19939;-57
2022/07/29 16:41:13;;;;;;;;;;;;;;;;;;4992971;28;19918;-57
2022/07/29 16:43:39;;;;;;;;;;;;;;;;;;4989025;28;19914;-57
2022/07/29 16:46:05;;;;;;;;;;;;;;;;;;4989683;28;19917;-57
2022/07/29 16:48:31;;;;;;;;;;;;;;;;;;4989710;28;19909;-57
2022/07/29 16:50:57;;;;;;;;;;;;;;;;;;4989405;28;19913;-57
2022/07/29 16:53:24;;;;;;;;;;;;;;;;;;4991943;28;20452;-57
2022/07/29 16:55:51;;;;;;;;;;;;;;;;;;5003189;28;19940;-57
2022/07/29 16:58:17;;;;;;;;;;;;;;;;;;4996216;28;19924;-57